Time;durP1;ratioP1;P1;durP2;ratioP2;P2;SDS_P1;SDS_P2;PMS_P1;PMS_P2;Temp;Humidity;BMP_temperature;BMP_pressure;BME280_temperature;BME280_humidity;BME280_pressure;Samples;Min_cycle;Max_cycle;Signal;HPM_P1;HPM_P2
2022/11/23 00:00:00;;;;;;;8.02;0.85;;;;;;;;;;5219924;28;20021;-72
2022/11/23 00:02:31;;;;;;;8.88;1.10;;;;;;;;;;5219255;28;20027;-71
2022/11/23 00:05:03;;;;;;;5.35;0.80;;;;;;;;;;5218779;28;20522;-71
2022/11/23 00:07:34;;;;;;;9.63;1.10;;;;;;;;;;5218870;28;20064;-72
2022/11/23 00:10:05;;;;;;;5.56;0.90;;;;;;;;;;5219712;28;20525;-72
2022/11/23 00:12:36;;;;;;;9.23;1.25;;;;;;;;;;5219617;28;20465;-72
2022/11/23 00:15:08;;;;;;;8.77;1.05;;;;;;;;;;5218867;28;20458;-71
2022/11/23 00:17:39;;;;;;;7.40;0.75;;;;;;;;;;5219307;28;20033;-71
2022/11/23 00:20:10;;;;;;;3.75;0.70;;;;;;;;;;5220118;28;20026;-71
2022/11/23 00:22:42;;;;;;;5.72;0.90;;;;;;;;;;5218607;28;20097;-71
2022/11/23 00:25:13;;;;;;;5.97;0.73;;;;;;;;;;5219898;28;20041;-71
2022/11/23 00:27:44;;;;;;;8.25;0.93;;;;;;;;;;5219090;28;20116;-71
2022/11/23 00:30:15;;;;;;;5.85;0.60;;;;;;;;;;5219292;28;20018;-71
2022/11/23 00:32:47;;;;;;;9.90;1.00;;;;;;;;;;5219125;28;20045;-70
2022/11/23 00:35:19;;;;;;;6.90;1.30;;;;;;;;;;5219018;28;20033;-71
2022/11/23 00:37:50;;;;;;;6.07;0.70;;;;;;;;;;5219009;28;20026;-72
2022/11/23 00:40:21;;;;;;;5.06;0.62;;;;;;;;;;5219287;28;20470;-71
2022/11/23 00:42:52;;;;;;;5.05;0.80;;;;;;;;;;5218769;28;20470;-71
2022/11/23 00:45:23;;;;;;;7.53;0.75;;;;;;;;;;5219551;28;20053;-72
2022/11/23 00:47:54;;;;;;;7.18;0.70;;;;;;;;;;5219383;28;20029;-72
2022/11/23 00:50:26;;;;;;;6.88;0.70;;;;;;;;;;5218564;28;20049;-72
2022/11/23 00:52:57;;;;;;;5.43;0.70;;;;;;;;;;5219081;28;20025;-71
2022/11/23 00:55:28;;;;;;;5.90;0.70;;;;;;;;;;5219192;28;20122;-72
2022/11/23 00:57:59;;;;;;;8.57;1.00;;;;;;;;;;5218546;28;20265;-72
2022/11/23 01:00:30;;;;;;;3.80;0.98;;;;;;;;;;5219351;28;20287;-72
2022/11/23 01:03:02;;;;;;;8.35;0.80;;;;;;;;;;5219217;28;20026;-72
2022/11/23 01:05:35;;;;;;;8.40;1.15;;;;;;;;;;5218416;28;20030;-72
2022/11/23 01:08:06;;;;;;;6.47;1.42;;;;;;;;;;5219301;28;20273;-72
2022/11/23 01:10:37;;;;;;;9.52;1.27;;;;;;;;;;5218362;28;20049;-72
2022/11/23 01:13:09;;;;;;;7.85;0.98;;;;;;;;;;5219420;28;20415;-73
2022/11/23 01:15:47;;;;;;;6.47;0.50;;;;;;;;;;5218724;28;20112;-72
2022/11/23 01:18:19;;;;;;;4.78;0.60;;;;;;;;;;5222570;28;20616;-72
2022/11/23 01:20:50;;;;;;;6.30;0.90;;;;;;;;;;5222801;28;20026;-72
2022/11/23 01:23:22;;;;;;;6.28;0.75;;;;;;;;;;5222697;28;20017;-72
2022/11/23 01:25:53;;;;;;;6.32;0.73;;;;;;;;;;5221847;28;20026;-71
2022/11/23 01:28:24;;;;;;;6.35;0.75;;;;;;;;;;5222545;28;20481;-72
2022/11/23 01:31:01;;;;;;;5.03;0.60;;;;;;;;;;5222777;28;20123;-72
2022/11/23 01:33:33;;;;;;;5.53;0.50;;;;;;;;;;5221742;28;20064;-72
2022/11/23 01:36:15;;;;;;;3.97;0.82;;;;;;;;;;5222506;28;20033;-72
2022/11/23 01:38:46;;;;;;;4.47;0.45;;;;;;;;;;5221290;28;20073;-72
2022/11/23 01:41:19;;;;;;;6.50;0.80;;;;;;;;;;5222692;28;20104;-72
2022/11/23 01:43:50;;;;;;;6.68;1.05;;;;;;;;;;5222133;28;20025;-72
2022/11/23 01:46:22;;;;;;;4.85;0.85;;;;;;;;;;5221779;28;20026;-72
2022/11/23 01:49:00;;;;;;;5.53;0.52;;;;;;;;;;5222201;28;20032;-72
2022/11/23 01:51:36;;;;;;;4.63;0.60;;;;;;;;;;5222625;28;20021;-72
2022/11/23 01:54:09;;;;;;;4.40;0.70;;;;;;;;;;5221444;28;20108;-72
2022/11/23 01:56:42;;;;;;;3.88;0.50;;;;;;;;;;5221829;28;20038;-72
2022/11/23 01:59:15;;;;;;;6.15;0.90;;;;;;;;;;5222331;28;20109;-71
2022/11/23 02:01:46;;;;;;;3.50;0.50;;;;;;;;;;5220952;28;20032;-71
2022/11/23 02:04:25;;;;;;;6.88;0.95;;;;;;;;;;5222176;28;20026;-71
2022/11/23 02:06:58;;;;;;;7.72;1.10;;;;;;;;;;5221111;28;20433;-72
2022/11/23 02:09:31;;;;;;;6.80;0.80;;;;;;;;;;5221784;28;20025;-72
2022/11/23 02:12:02;;;;;;;3.47;0.45;;;;;;;;;;5221785;28;20068;-72
2022/11/23 02:14:33;;;;;;;3.95;0.50;;;;;;;;;;5221146;28;20033;-72
2022/11/23 02:17:04;;;;;;;7.18;0.75;;;;;;;;;;5221628;28;20021;-71
2022/11/23 02:20:01;;;;;;;3.63;0.70;;;;;;;;;;5221795;28;20073;-72
2022/11/23 02:22:51;;;;;;;4.88;0.50;;;;;;;;;;5220912;28;20033;-72
2022/11/23 02:25:41;;;;;;;5.22;1.00;;;;;;;;;;5221700;28;20026;-73
2022/11/23 02:28:23;;;;;;;9.02;1.10;;;;;;;;;;5220080;28;20029;-72
2022/11/23 02:30:54;;;;;;;6.85;0.60;;;;;;;;;;5221544;28;20366;-72
2022/11/23 02:33:25;;;;;;;10.43;0.70;;;;;;;;;;5221257;28;20111;-72
2022/11/23 02:35:58;;;;;;;4.75;0.85;;;;;;;;;;5220412;28;20033;-72
2022/11/23 02:38:31;;;;;;;7.30;0.65;;;;;;;;;;5221326;28;20049;-72
2022/11/23 02:41:02;;;;;;;8.85;1.00;;;;;;;;;;5221104;28;20106;-72
2022/11/23 02:43:33;;;;;;;7.28;0.60;;;;;;;;;;5220613;28;20436;-72
2022/11/23 02:46:05;;;;;;;6.30;0.50;;;;;;;;;;5221258;28;20096;-72
2022/11/23 02:48:36;;;;;;;8.90;0.63;;;;;;;;;;5221151;28;20101;-72
2022/11/23 02:51:07;;;;;;;7.05;1.58;;;;;;;;;;5220347;28;20026;-72
2022/11/23 02:53:38;;;;;;;6.58;0.70;;;;;;;;;;5220682;28;20265;-72
2022/11/23 02:56:09;;;;;;;8.82;0.70;;;;;;;;;;5220640;28;20038;-72
2022/11/23 02:58:41;;;;;;;8.77;0.60;;;;;;;;;;5220768;28;20144;-72
2022/11/23 03:01:12;;;;;;;5.34;0.84;;;;;;;;;;5221375;28;20280;-71
2022/11/23 03:03:43;;;;;;;6.68;0.70;;;;;;;;;;5219446;28;20159;-72
2022/11/23 03:06:14;;;;;;;4.70;0.60;;;;;;;;;;5220859;28;20029;-72
2022/11/23 03:08:45;;;;;;;10.34;1.40;;;;;;;;;;5220430;28;20026;-72
2022/11/23 03:11:16;;;;;;;8.20;0.85;;;;;;;;;;5220103;28;20017;-72
2022/11/23 03:13:48;;;;;;;10.52;1.15;;;;;;;;;;5220335;28;20457;-71
2022/11/23 03:16:19;;;;;;;5.18;0.60;;;;;;;;;;5220842;28;20033;-72
2022/11/23 03:18:51;;;;;;;10.35;1.17;;;;;;;;;;5219440;28;20112;-71
2022/11/23 03:21:22;;;;;;;6.85;1.08;;;;;;;;;;5220736;28;20105;-72
2022/11/23 03:23:53;;;;;;;8.98;1.36;;;;;;;;;;5220545;28;20030;-72
2022/11/23 03:26:25;;;;;;;7.55;1.35;;;;;;;;;;5219751;28;20029;-72
2022/11/23 03:28:56;;;;;;;6.30;0.90;;;;;;;;;;5220284;28;20097;-72
2022/11/23 03:31:27;;;;;;;8.05;1.08;;;;;;;;;;5219705;28;20029;-72
2022/11/23 03:33:58;;;;;;;11.23;2.25;;;;;;;;;;5220229;28;20021;-72
2022/11/23 03:36:29;;;;;;;8.85;1.13;;;;;;;;;;5220255;28;20030;-72
2022/11/23 03:39:00;;;;;;;6.60;0.70;;;;;;;;;;5219300;28;20029;-71
2022/11/23 03:41:32;;;;;;;8.84;1.16;;;;;;;;;;5220064;28;20014;-72
2022/11/23 03:44:03;;;;;;;10.30;1.23;;;;;;;;;;5220069;28;20028;-72
2022/11/23 03:46:34;;;;;;;8.73;0.70;;;;;;;;;;5219224;28;20080;-72
2022/11/23 03:49:05;;;;;;;6.47;0.60;;;;;;;;;;5219965;28;20461;-72
2022/11/23 03:51:36;;;;;;;6.70;0.60;;;;;;;;;;5220064;28;20277;-72
2022/11/23 03:54:08;;;;;;;7.45;0.80;;;;;;;;;;5219075;28;20260;-72
2022/11/23 03:56:39;;;;;;;7.72;1.05;;;;;;;;;;5219776;28;20457;-72
2022/11/23 03:59:10;;;;;;;4.43;0.90;;;;;;;;;;5219715;28;20037;-72
2022/11/23 04:01:41;;;;;;;7.22;1.02;;;;;;;;;;5219392;28;20347;-72
2022/11/23 04:04:12;;;;;;;8.77;1.02;;;;;;;;;;5220156;28;20104;-72
2022/11/23 04:06:44;;;;;;;7.55;0.70;;;;;;;;;;5218688;28;20017;-72
2022/11/23 04:09:15;;;;;;;8.45;1.25;;;;;;;;;;5220206;28;20026;-72
2022/11/23 04:11:46;;;;;;;9.57;0.80;;;;;;;;;;5219519;28;20128;-72
2022/11/23 04:14:17;;;;;;;5.53;0.60;;;;;;;;;;5219174;28;20026;-72
2022/11/23 04:16:48;;;;;;;11.93;1.80;;;;;;;;;;5219325;28;20025;-72
2022/11/23 04:19:20;;;;;;;7.70;0.68;;;;;;;;;;5219931;28;20347;-72
2022/11/23 04:21:51;;;;;;;7.35;0.82;;;;;;;;;;5218877;28;20749;-72
2022/11/23 04:24:22;;;;;;;5.32;0.60;;;;;;;;;;5219866;28;20045;-72
2022/11/23 04:26:53;;;;;;;10.25;1.63;;;;;;;;;;5219566;28;20066;-72
2022/11/23 04:29:24;;;;;;;8.43;0.80;;;;;;;;;;5218751;28;20010;-72
2022/11/23 04:31:55;;;;;;;8.07;0.73;;;;;;;;;;5219286;28;20046;-71
2022/11/23 04:34:27;;;;;;;5.65;0.82;;;;;;;;;;5218767;28;20493;-72
2022/11/23 04:36:58;;;;;;;7.86;0.94;;;;;;;;;;5219597;28;20030;-72
2022/11/23 04:39:29;;;;;;;7.10;0.95;;;;;;;;;;5219382;28;20026;-72
2022/11/23 04:42:00;;;;;;;7.28;0.70;;;;;;;;;;5218622;28;20644;-72
2022/11/23 04:44:31;;;;;;;9.36;0.80;;;;;;;;;;5219613;28;20060;-73
2022/11/23 04:47:02;;;;;;;7.70;0.80;;;;;;;;;;5219467;28;20034;-72
2022/11/23 04:49:34;;;;;;;6.60;0.80;;;;;;;;;;5218683;28;20024;-72
2022/11/23 04:52:05;;;;;;;9.07;1.00;;;;;;;;;;5221479;28;20049;-72
2022/11/23 04:54:36;;;;;;;7.05;0.90;;;;;;;;;;5223164;28;20033;-71
2022/11/23 04:57:08;;;;;;;9.25;0.90;;;;;;;;;;5222669;28;20030;-71
2022/11/23 04:59:39;;;;;;;9.52;0.90;;;;;;;;;;5222902;28;20018;-71
2022/11/23 05:02:10;;;;;;;7.78;0.90;;;;;;;;;;5223487;28;20477;-71
2022/11/23 05:04:41;;;;;;;6.60;0.93;;;;;;;;;;5222035;28;20026;-71
2022/11/23 05:07:12;;;;;;;7.32;0.80;;;;;;;;;;5223452;28;20285;-71
2022/11/23 05:09:43;;;;;;;8.90;1.05;;;;;;;;;;5222137;28;20026;-71
2022/11/23 05:12:14;;;;;;;7.97;0.80;;;;;;;;;;5223226;28;20273;-71
2022/11/23 05:14:46;;;;;;;6.97;0.70;;;;;;;;;;5222671;28;20469;-71
2022/11/23 05:17:17;;;;;;;10.00;1.88;;;;;;;;;;5222358;28;20053;-71
2022/11/23 05:19:48;;;;;;;6.97;0.82;;;;;;;;;;5222671;28;20022;-71
2022/11/23 05:22:20;;;;;;;13.73;1.48;;;;;;;;;;5223369;28;20014;-72
2022/11/23 05:24:51;;;;;;;7.93;1.20;;;;;;;;;;5221849;28;20056;-71
2022/11/23 05:27:22;;;;;;;13.23;2.10;;;;;;;;;;5222648;28;20380;-71
2022/11/23 05:29:53;;;;;;;12.02;1.20;;;;;;;;;;5222582;28;20440;-71
2022/11/23 05:32:24;;;;;;;8.55;0.90;;;;;;;;;;5221894;28;20088;-72
2022/11/23 05:34:56;;;;;;;10.00;1.48;;;;;;;;;;5222540;28;20042;-71
2022/11/23 05:37:27;;;;;;;9.02;1.16;;;;;;;;;;5222593;28;20017;-71
2022/11/23 05:39:58;;;;;;;10.43;1.23;;;;;;;;;;5221745;28;20022;-71
2022/11/23 05:42:29;;;;;;;7.93;1.42;;;;;;;;;;5222363;28;20105;-71
2022/11/23 05:45:00;;;;;;;11.93;1.70;;;;;;;;;;5221533;28;20033;-72
2022/11/23 05:47:31;;;;;;;11.98;1.02;;;;;;;;;;5222297;28;20454;-72
2022/11/23 05:50:03;;;;;;;11.98;1.40;;;;;;;;;;5222347;28;20405;-72
2022/11/23 05:52:34;;;;;;;11.35;1.33;;;;;;;;;;5221341;28;20026;-72
2022/11/23 05:55:05;;;;;;;10.55;1.30;;;;;;;;;;5221980;28;20108;-72
2022/11/23 05:57:37;;;;;;;11.50;1.33;;;;;;;;;;5222288;28;20025;-72
2022/11/23 06:00:09;;;;;;;11.68;1.00;;;;;;;;;;5221364;28;20076;-72
2022/11/23 06:02:40;;;;;;;10.57;1.00;;;;;;;;;;5221670;28;20084;-72
2022/11/23 06:05:11;;;;;;;10.74;1.30;;;;;;;;;;5222264;28;20026;-72
2022/11/23 06:07:43;;;;;;;10.82;1.52;;;;;;;;;;5220704;28;20018;-72
2022/11/23 06:10:14;;;;;;;12.27;1.65;;;;;;;;;;5222153;28;20022;-72
2022/11/23 06:12:46;;;;;;;11.80;1.75;;;;;;;;;;5221460;28;20100;-72
2022/11/23 06:15:17;;;;;;;9.40;1.10;;;;;;;;;;5221350;28;20481;-72
2022/11/23 06:17:48;;;;;;;9.70;1.08;;;;;;;;;;5221244;28;20094;-72
2022/11/23 06:20:19;;;;;;;8.88;1.17;;;;;;;;;;5221402;28;20024;-72
2022/11/23 06:22:51;;;;;;;10.70;1.30;;;;;;;;;;5221326;28;20080;-72
2022/11/23 06:25:23;;;;;;;13.45;1.27;;;;;;;;;;5221686;28;20050;-73
2022/11/23 06:27:55;;;;;;;10.93;1.20;;;;;;;;;;5220578;28;20060;-72
2022/11/23 06:30:27;;;;;;;12.55;2.03;;;;;;;;;;5221411;28;20457;-72
2022/11/23 06:33:00;;;;;;;11.73;1.30;;;;;;;;;;5221248;28;20432;-72
2022/11/23 06:35:32;;;;;;;11.07;1.00;;;;;;;;;;5220559;28;20021;-72
2022/11/23 06:38:03;;;;;;;6.65;0.93;;;;;;;;;;5221297;28;20029;-72
2022/11/23 06:40:34;;;;;;;11.42;1.18;;;;;;;;;;5221258;28;20327;-72
2022/11/23 06:43:05;;;;;;;9.00;1.15;;;;;;;;;;5220283;28;20044;-72
2022/11/23 06:45:36;;;;;;;15.55;1.52;;;;;;;;;;5216649;28;20060;-71
2022/11/23 06:48:11;;;;;;;8.77;1.05;;;;;;;;;;5219512;28;20030;-70
2022/11/23 06:50:42;;;;;;;7.40;0.95;;;;;;;;;;5220109;28;20030;-72
2022/11/23 06:53:13;;;;;;;12.20;1.10;;;;;;;;;;5220805;28;20096;-72
2022/11/23 06:55:44;;;;;;;11.80;1.00;;;;;;;;;;5219711;28;20037;-72
2022/11/23 06:58:15;;;;;;;12.40;1.10;;;;;;;;;;5220871;28;20093;-71
2022/11/23 07:00:47;;;;;;;9.50;1.00;;;;;;;;;;5220130;28;20052;-71
2022/11/23 07:03:22;;;;;;;9.85;1.27;;;;;;;;;;5219821;28;20018;-70
2022/11/23 07:05:53;;;;;;;10.15;0.90;;;;;;;;;;5220249;28;20045;-70
2022/11/23 07:08:24;;;;;;;9.68;1.40;;;;;;;;;;5220320;28;20018;-71
2022/11/23 07:10:59;;;;;;;9.78;1.72;;;;;;;;;;5219621;28;20373;-71
2022/11/23 07:13:31;;;;;;;10.02;1.13;;;;;;;;;;5220240;28;20033;-71
2022/11/23 07:16:02;;;;;;;9.95;1.00;;;;;;;;;;5220029;28;20389;-71
2022/11/23 07:18:33;;;;;;;6.13;0.70;;;;;;;;;;5220079;28;20046;-71
2022/11/23 07:21:04;;;;;;;10.25;1.40;;;;;;;;;;5220485;28;20393;-71
2022/11/23 07:23:39;;;;;;;6.90;1.52;;;;;;;;;;5219536;28;20113;-71
2022/11/23 07:26:10;;;;;;;8.68;1.15;;;;;;;;;;5220579;28;20420;-71
2022/11/23 07:28:41;;;;;;;13.40;1.77;;;;;;;;;;5219873;28;20072;-71
2022/11/23 07:31:14;;;;;;;11.10;1.48;;;;;;;;;;5219824;28;20188;-70
2022/11/23 07:33:46;;;;;;;11.48;2.10;;;;;;;;;;5219550;28;20046;-70
2022/11/23 07:36:18;;;;;;;6.82;0.70;;;;;;;;;;5220392;28;20022;-71
2022/11/23 07:38:49;;;;;;;10.65;0.98;;;;;;;;;;5218810;28;20013;-70
2022/11/23 07:41:20;;;;;;;7.88;1.00;;;;;;;;;;5219889;28;20338;-71
2022/11/23 07:43:51;;;;;;;11.05;0.90;;;;;;;;;;5219980;28;20026;-70
2022/11/23 07:46:22;;;;;;;9.98;0.70;;;;;;;;;;5219235;28;20385;-71
2022/11/23 07:48:58;;;;;;;11.90;1.15;;;;;;;;;;5219786;28;20033;-71
2022/11/23 07:51:29;;;;;;;10.65;0.80;;;;;;;;;;5231940;28;20057;-70
2022/11/23 07:54:00;;;;;;;11.05;1.10;;;;;;;;;;5240339;28;20049;-70
2022/11/23 07:56:31;;;;;;;10.75;0.85;;;;;;;;;;5231291;28;20048;-70
2022/11/23 07:59:03;;;;;;;12.07;0.68;;;;;;;;;;5230962;28;20283;-70
2022/11/23 08:01:34;;;;;;;8.93;1.65;;;;;;;;;;5239880;28;20025;-69
2022/11/23 08:04:05;;;;;;;8.50;1.02;;;;;;;;;;5240121;28;20025;-72
2022/11/23 08:06:36;;;;;;;6.80;0.70;;;;;;;;;;5239286;28;20036;-71
2022/11/23 08:09:08;;;;;;;10.66;1.04;;;;;;;;;;5240000;28;20365;-72
2022/11/23 08:11:39;;;;;;;6.43;0.93;;;;;;;;;;5239879;28;20372;-71
2022/11/23 08:14:10;;;;;;;9.43;0.93;;;;;;;;;;5239650;28;20025;-71
2022/11/23 08:16:41;;;;;;;9.07;1.95;;;;;;;;;;5239632;28;20175;-70
2022/11/23 08:19:13;;;;;;;8.23;1.60;;;;;;;;;;5240441;28;20033;-71
2022/11/23 08:21:44;;;;;;;13.48;0.90;;;;;;;;;;5239058;28;20021;-70
2022/11/23 08:24:15;;;;;;;5.72;0.90;;;;;;;;;;5240373;28;20017;-70
2022/11/23 08:26:46;;;;;;;9.00;1.10;;;;;;;;;;5240185;28;20776;-72
2022/11/23 08:29:17;;;;;;;7.44;1.08;;;;;;;;;;5244579;28;20702;-74
2022/11/23 08:31:49;;;;;;;8.45;1.00;;;;;;;;;;5243851;28;20439;-73
2022/11/23 08:34:20;;;;;;;9.20;0.98;;;;;;;;;;5243381;28;20034;-75
2022/11/23 08:36:51;;;;;;;12.62;1.24;;;;;;;;;;5244105;28;20535;-76
2022/11/23 08:39:23;;;;;;;9.74;1.34;;;;;;;;;;5243824;28;20372;-74
2022/11/23 08:41:54;;;;;;;9.88;0.80;;;;;;;;;;5243380;28;20407;-74
2022/11/23 08:44:25;;;;;;;10.18;2.12;;;;;;;;;;5243993;28;20013;-75
2022/11/23 08:46:56;;;;;;;8.20;1.25;;;;;;;;;;5243897;28;20024;-73
2022/11/23 08:49:27;;;;;;;9.25;1.33;;;;;;;;;;5243097;28;20025;-74
2022/11/23 08:51:59;;;;;;;7.47;0.70;;;;;;;;;;5243681;28;20031;-72
2022/11/23 08:54:30;;;;;;;6.30;0.75;;;;;;;;;;5243882;28;20025;-72
2022/11/23 08:57:01;;;;;;;5.88;0.88;;;;;;;;;;5242976;28;20017;-73
2022/11/23 08:59:33;;;;;;;12.96;1.50;;;;;;;;;;5243656;28;20025;-74
2022/11/23 09:02:04;;;;;;;7.45;1.50;;;;;;;;;;5242832;28;20017;-74
2022/11/23 09:04:35;;;;;;;5.45;0.85;;;;;;;;;;5243398;28;20029;-73
2022/11/23 09:07:07;;;;;;;6.72;1.33;;;;;;;;;;5243638;28;20040;-73
2022/11/23 09:09:38;;;;;;;8.75;1.13;;;;;;;;;;5242813;28;20063;-73
2022/11/23 09:12:09;;;;;;;11.55;0.80;;;;;;;;;;5243513;28;20044;-74
2022/11/23 09:14:40;;;;;;;8.00;0.70;;;;;;;;;;5242758;28;20100;-74
2022/11/23 09:17:11;;;;;;;9.30;0.80;;;;;;;;;;5242755;28;20037;-74
2022/11/23 09:19:42;;;;;;;10.63;1.05;;;;;;;;;;5242858;28;20385;-73
2022/11/23 09:22:14;;;;;;;6.32;0.70;;;;;;;;;;5235710;28;20113;-73
2022/11/23 09:24:45;;;;;;;7.53;1.63;;;;;;;;;;5231795;28;20029;-73
2022/11/23 09:27:16;;;;;;;8.15;1.10;;;;;;;;;;5222468;28;20018;-72
2022/11/23 09:29:48;;;;;;;9.68;2.25;;;;;;;;;;5221561;28;20083;-71
2022/11/23 09:32:19;;;;;;;9.52;0.80;;;;;;;;;;5222529;28;20060;-71
2022/11/23 09:34:51;;;;;;;6.30;1.05;;;;;;;;;;5218426;28;20366;-72
2022/11/23 09:37:22;;;;;;;6.64;0.80;;;;;;;;;;5220753;28;20056;-72
2022/11/23 09:39:53;;;;;;;5.97;0.52;;;;;;;;;;5221440;28;20021;-72
2022/11/23 09:42:43;;;;;;;8.08;0.78;;;;;;;;;;5222191;28;20052;-71
2022/11/23 09:45:33;;;;;;;7.75;0.80;;;;;;;;;;5221303;28;20061;-72
2022/11/23 09:48:23;;;;;;;8.57;1.02;;;;;;;;;;5221555;28;20061;-73
2022/11/23 09:50:58;;;;;;;9.88;0.73;;;;;;;;;;5221093;28;20088;-72
2022/11/23 09:53:32;;;;;;;7.72;0.93;;;;;;;;;;5221259;28;20030;-73
2022/11/23 09:56:03;;;;;;;7.38;1.10;;;;;;;;;;5221623;28;20022;-73
2022/11/23 09:58:38;;;;;;;9.63;0.60;;;;;;;;;;5220591;28;20036;-73
2022/11/23 10:01:12;;;;;;;5.43;0.60;;;;;;;;;;5222011;28;20018;-73
2022/11/23 10:03:44;;;;;;;8.60;0.70;;;;;;;;;;5221202;28;20032;-74
2022/11/23 10:06:17;;;;;;;4.80;0.63;;;;;;;;;;5221454;28;20096;-73
2022/11/23 10:08:51;;;;;;;4.85;0.55;;;;;;;;;;5220895;28;20025;-73
2022/11/23 10:11:30;;;;;;;6.45;0.55;;;;;;;;;;5221639;28;20029;-73
2022/11/23 10:14:07;;;;;;;11.75;1.30;;;;;;;;;;5220870;28;20105;-73
2022/11/23 10:16:46;;;;;;;4.18;0.40;;;;;;;;;;5221667;28;20026;-73
2022/11/23 10:19:17;;;;;;;7.13;0.60;;;;;;;;;;5221139;28;20021;-73
2022/11/23 10:22:08;;;;;;;8.40;0.80;;;;;;;;;;5221166;28;20022;-73
2022/11/23 10:24:46;;;;;;;6.95;0.60;;;;;;;;;;5221284;28;20011;-73
2022/11/23 10:27:19;;;;;;;6.82;1.58;;;;;;;;;;5221145;28;20022;-74
2022/11/23 10:29:55;;;;;;;6.90;0.60;;;;;;;;;;5221075;28;20377;-72
2022/11/23 10:32:26;;;;;;;8.38;0.60;;;;;;;;;;5221243;28;20056;-72
2022/11/23 10:35:01;;;;;;;8.18;0.68;;;;;;;;;;5219875;28;20038;-73
2022/11/23 10:37:32;;;;;;;2.90;0.40;;;;;;;;;;5221114;28;20033;-72
2022/11/23 10:40:09;;;;;;;4.88;0.75;;;;;;;;;;5219949;28;20022;-72
2022/11/23 10:42:42;;;;;;;6.57;0.70;;;;;;;;;;5220873;28;20052;-73
2022/11/23 10:45:20;;;;;;;6.28;0.60;;;;;;;;;;5221513;28;20033;-72
2022/11/23 10:47:58;;;;;;;4.13;0.50;;;;;;;;;;5220430;28;20022;-72
2022/11/23 10:50:33;;;;;;;6.68;0.70;;;;;;;;;;5219704;28;20034;-71
2022/11/23 10:53:04;;;;;;;8.05;0.80;;;;;;;;;;5220742;28;20113;-72
2022/11/23 10:55:51;;;;;;;5.03;0.80;;;;;;;;;;5220242;28;20120;-72
2022/11/23 10:58:35;;;;;;;9.43;1.08;;;;;;;;;;5220693;28;20272;-72
2022/11/23 11:01:36;;;;;;;7.28;0.93;;;;;;;;;;5220826;28;20029;-72
2022/11/23 11:04:20;;;;;;;6.25;0.60;;;;;;;;;;5199392;28;20032;-72
2022/11/23 11:07:02;;;;;;;4.22;0.50;;;;;;;;;;5220365;28;20022;-72
2022/11/23 11:09:33;;;;;;;5.28;0.80;;;;;;;;;;5219840;28;20018;-71
2022/11/23 11:12:13;;;;;;;6.13;0.45;;;;;;;;;;5220737;28;20029;-72
2022/11/23 11:15:01;;;;;;;4.90;0.45;;;;;;;;;;5220207;28;20032;-72
2022/11/23 11:17:33;;;;;;;5.50;0.40;;;;;;;;;;5219829;28;20061;-73
2022/11/23 11:20:27;;;;;;;4.53;0.45;;;;;;;;;;5220399;28;20091;-72
2022/11/23 11:23:01;;;;;;;7.82;0.50;;;;;;;;;;5219772;28;20026;-71
2022/11/23 11:25:34;;;;;;;6.13;0.50;;;;;;;;;;5220389;28;20410;-72
2022/11/23 11:28:18;;;;;;;3.58;0.40;;;;;;;;;;5220119;28;20026;-72
2022/11/23 11:31:08;;;;;;;3.20;0.35;;;;;;;;;;5219197;28;20029;-72
2022/11/23 11:33:41;;;;;;;7.28;0.50;;;;;;;;;;5219604;28;20093;-72
2022/11/23 11:36:15;;;;;;;5.03;0.55;;;;;;;;;;5220045;28;20033;-72
2022/11/23 11:38:49;;;;;;;3.92;0.38;;;;;;;;;;5218816;28;20124;-72
2022/11/23 11:41:24;;;;;;;3.25;0.38;;;;;;;;;;5219975;28;20076;-73
2022/11/23 11:43:58;;;;;;;3.92;0.32;;;;;;;;;;5219323;28;20060;-69
2022/11/23 11:46:33;;;;;;;4.72;0.50;;;;;;;;;;5219967;28;20072;-73
2022/11/23 11:49:17;;;;;;;6.60;0.60;;;;;;;;;;5219477;28;20022;-72
2022/11/23 11:52:07;;;;;;;5.80;0.73;;;;;;;;;;5219089;28;20026;-74
2022/11/23 11:54:55;;;;;;;4.95;0.60;;;;;;;;;;5219650;28;20018;-73
2022/11/23 11:57:38;;;;;;;4.43;0.60;;;;;;;;;;5219248;28;20037;-73
2022/11/23 12:00:12;;;;;;;2.92;0.30;;;;;;;;;;5219992;28;20505;-73
2022/11/23 12:03:02;;;;;;;2.67;0.47;;;;;;;;;;5219445;28;20484;-74
2022/11/23 12:05:50;;;;;;;4.07;0.30;;;;;;;;;;5218862;28;20057;-72
2022/11/23 12:08:29;;;;;;;1.85;0.10;;;;;;;;;;5219862;28;20014;-73
2022/11/23 12:11:01;;;;;;;2.33;0.30;;;;;;;;;;5219714;28;20365;-72
2022/11/23 12:13:33;;;;;;;4.20;0.22;;;;;;;;;;5218953;28;20018;-72
2022/11/23 12:16:23;;;;;;;2.35;0.30;;;;;;;;;;5219463;28;20038;-72
2022/11/23 12:19:07;;;;;;;2.53;0.20;;;;;;;;;;5218781;28;20056;-72
2022/11/23 12:21:39;;;;;;;3.78;0.47;;;;;;;;;;5219328;28;20535;-73
2022/11/23 12:24:24;;;;;;;3.20;0.30;;;;;;;;;;5219715;28;20026;-72
2022/11/23 12:27:15;;;;;;;3.25;0.30;;;;;;;;;;5218837;28;20022;-72
2022/11/23 12:29:52;;;;;;;4.47;0.43;;;;;;;;;;5169081;28;20068;-71
2022/11/23 12:32:42;;;;;;;5.57;0.30;;;;;;;;;;5219347;28;20130;-71
2022/11/23 12:35:22;;;;;;;3.20;0.30;;;;;;;;;;5218626;28;20041;-72
2022/11/23 12:37:59;;;;;;;2.47;0.22;;;;;;;;;;5219024;28;20034;-72
2022/11/23 12:40:42;;;;;;;2.55;0.22;;;;;;;;;;5218669;28;20026;-72
2022/11/23 12:43:22;;;;;;;3.88;0.50;;;;;;;;;;5219214;28;20018;-72
2022/11/23 12:46:09;;;;;;;3.28;0.30;;;;;;;;;;5219314;28;20083;-71
2022/11/23 12:48:58;;;;;;;2.45;0.30;;;;;;;;;;5218123;28;20370;-71
2022/11/23 12:51:35;;;;;;;0.82;0.22;;;;;;;;;;5219060;28;20157;-72
2022/11/23 12:54:09;;;;;;;1.75;0.40;;;;;;;;;;5217993;28;20072;-71
2022/11/23 12:56:49;;;;;;;3.30;0.30;;;;;;;;;;5218577;28;20030;-72
2022/11/23 12:59:21;;;;;;;2.40;0.30;;;;;;;;;;5218943;28;20021;-71
2022/11/23 13:01:58;;;;;;;5.35;0.60;;;;;;;;;;5218228;28;20076;-71
2022/11/23 13:04:29;;;;;;;3.95;0.30;;;;;;;;;;5218991;28;20033;-72
2022/11/23 13:07:06;;;;;;;3.83;0.30;;;;;;;;;;5219159;28;20026;-71
2022/11/23 13:09:37;;;;;;;4.32;0.60;;;;;;;;;;5218090;28;20080;-71
2022/11/23 13:12:27;;;;;;;2.25;0.20;;;;;;;;;;5219408;28;20026;-71
2022/11/23 13:15:09;;;;;;;2.42;0.25;;;;;;;;;;5221905;28;20302;-73
2022/11/23 13:18:10;;;;;;;2.00;0.20;;;;;;;;;;5222601;28;20053;-73
2022/11/23 13:20:47;;;;;;;3.95;0.57;;;;;;;;;;5222420;28;20096;-72
2022/11/23 13:23:22;;;;;;;1.88;0.30;;;;;;;;;;5222205;28;20428;-72
2022/11/23 13:26:12;;;;;;;2.63;0.30;;;;;;;;;;5222567;28;20026;-73
2022/11/23 13:28:45;;;;;;;1.27;0.30;;;;;;;;;;5222353;28;20477;-73
2022/11/23 13:31:22;;;;;;;2.60;0.35;;;;;;;;;;5222478;28;20028;-73
2022/11/23 13:33:54;;;;;;;4.03;0.35;;;;;;;;;;5222285;28;20112;-71
2022/11/23 13:36:29;;;;;;;4.65;0.75;;;;;;;;;;5221737;28;20381;-71
2022/11/23 13:39:00;;;;;;;1.98;0.30;;;;;;;;;;5222410;28;20121;-72
2022/11/23 13:41:38;;;;;;;1.10;0.20;;;;;;;;;;5222192;28;20136;-72
2022/11/23 13:44:18;;;;;;;2.65;0.30;;;;;;;;;;5221969;28;20080;-72
2022/11/23 13:47:00;;;;;;;2.20;0.35;;;;;;;;;;5222071;28;20025;-70
2022/11/23 13:49:51;;;;;;;2.67;0.30;;;;;;;;;;5222154;28;20071;-71
2022/11/23 13:52:22;;;;;;;1.88;0.38;;;;;;;;;;5220741;28;20083;-71
2022/11/23 13:54:55;;;;;;;3.03;0.20;;;;;;;;;;5221920;28;20037;-71
2022/11/23 13:57:27;;;;;;;3.63;0.40;;;;;;;;;;5221198;28;20018;-71
2022/11/23 14:00:17;;;;;;;5.60;0.40;;;;;;;;;;5221950;28;20791;-71
2022/11/23 14:02:48;;;;;;;4.50;0.35;;;;;;;;;;5221841;28;20017;-72
2022/11/23 14:05:38;;;;;;;2.97;0.38;;;;;;;;;;5221492;28;20021;-72
2022/11/23 14:08:10;;;;;;;1.30;0.43;;;;;;;;;;5217091;28;20117;-72
2022/11/23 14:10:41;;;;;;;3.75;0.40;;;;;;;;;;5220934;28;20105;-73
2022/11/23 14:13:30;;;;;;;2.25;0.40;;;;;;;;;;5221304;28;20026;-73
2022/11/23 14:16:02;;;;;;;;;;;;;;;;;;5221834;28;20144;-73
2022/11/23 14:18:33;;;;;;;3.53;0.40;;;;;;;;;;5220623;28;19995;-72
2022/11/23 14:21:04;;;;;;;1.40;0.30;;;;;;;;;;5220895;28;20083;-74
2022/11/23 14:23:35;;;;;;;1.52;0.30;;;;;;;;;;5220221;28;20684;-73
2022/11/23 14:26:18;;;;;;;3.25;0.30;;;;;;;;;;5220365;28;20805;-73
2022/11/23 14:28:55;;;;;;;1.85;0.30;;;;;;;;;;5220928;28;20360;-75
2022/11/23 14:31:42;;;;;;;2.33;0.30;;;;;;;;;;5220692;28;20033;-73
2022/11/23 14:34:27;;;;;;;2.67;0.40;;;;;;;;;;5220343;28;20061;-74
2022/11/23 14:37:03;;;;;;;4.20;0.50;;;;;;;;;;5220917;28;20037;-73
2022/11/23 14:39:54;;;;;;;2.85;0.40;;;;;;;;;;5220481;28;20500;-74
2022/11/23 14:42:27;;;;;;;3.92;0.50;;;;;;;;;;5220847;28;20029;-74
2022/11/23 14:45:02;;;;;;;3.60;0.40;;;;;;;;;;5221150;28;20030;-74
2022/11/23 14:47:33;;;;;;;3.00;0.38;;;;;;;;;;5220332;28;20025;-73
2022/11/23 14:50:04;;;;;;;2.35;0.50;;;;;;;;;;5217231;28;20018;-75
2022/11/23 14:52:35;;;;;;;2.10;0.47;;;;;;;;;;5220663;28;20029;-74
2022/11/23 14:55:14;;;;;;;4.78;0.50;;;;;;;;;;5219485;28;20030;-73
2022/11/23 14:57:47;;;;;;;5.10;0.60;;;;;;;;;;5220555;28;20095;-73
2022/11/23 15:00:27;;;;;;;3.50;1.00;;;;;;;;;;5220565;28;20107;-74
2022/11/23 15:03:04;;;;;;;3.65;0.80;;;;;;;;;;5220112;28;20060;-76
2022/11/23 15:05:36;;;;;;;4.20;0.22;;;;;;;;;;5220507;28;20084;-72
2022/11/23 15:08:19;;;;;;;2.30;0.47;;;;;;;;;;5219830;28;20057;-72
2022/11/23 15:10:53;;;;;;;3.92;0.52;;;;;;;;;;5220014;28;20056;-73
2022/11/23 15:13:26;;;;;;;2.08;0.40;;;;;;;;;;5219715;28;20033;-72
2022/11/23 15:15:58;;;;;;;2.45;0.47;;;;;;;;;;5219507;28;20041;-74
2022/11/23 15:18:30;;;;;;;2.90;0.30;;;;;;;;;;5220055;28;20013;-73
2022/11/23 15:21:03;;;;;;;6.25;0.50;;;;;;;;;;5219892;28;20461;-72